createdAt,value
2022-08-09T00:00:21.710Z,23.33
2022-08-09T00:02:51.527Z,23.20
2022-08-09T00:06:17.780Z,23.12
2022-08-09T00:08:11.095Z,23.26
2022-08-09T00:10:40.740Z,23.23
2022-08-09T00:13:16.879Z,23.21
2022-08-09T00:15:59.750Z,23.13
2022-08-09T00:18:34.866Z,23.26
2022-08-09T00:21:08.704Z,23.23
2022-08-09T00:23:56.447Z,23.19
2022-08-09T00:26:29.759Z,22.96
2022-08-09T00:29:02.121Z,22.96
2022-08-09T00:31:57.523Z,22.99
2022-08-09T00:34:19.576Z,23.00
2022-08-09T00:36:48.776Z,23.01
2022-08-09T00:40:08.860Z,22.98
2022-08-09T00:44:14.658Z,22.85
2022-08-09T00:44:50.653Z,22.78
2022-08-09T00:47:21.302Z,22.78
2022-08-09T00:49:54.623Z,22.78
2022-08-09T00:52:30.060Z,22.76
2022-08-09T00:55:02.257Z,22.77
2022-08-09T00:57:34.887Z,22.84
2022-08-09T01:00:21.207Z,22.82
2022-08-09T01:03:05.330Z,22.85
2022-08-09T01:05:57.627Z,22.88
2022-08-09T01:09:16.846Z,22.76
2022-08-09T01:12:01.572Z,22.82
2022-08-09T01:14:54.303Z,22.76
2022-08-09T01:17:47.837Z,22.72
2022-08-09T01:20:35.371Z,22.62
2022-08-09T01:24:01.964Z,22.69
2022-08-09T01:26:55.876Z,22.52
2022-08-09T01:29:41.135Z,22.63
2022-08-09T01:32:39.189Z,22.62
2022-08-09T01:35:39.547Z,22.50
2022-08-09T01:38:27.856Z,22.63
2022-08-09T01:41:06.519Z,22.66
2022-08-09T01:43:50.746Z,22.62
2022-08-09T01:46:28.212Z,22.54
2022-08-09T01:49:10.124Z,22.57
2022-08-09T01:51:42.729Z,22.66
2022-08-09T01:54:14.187Z,22.63
2022-08-09T01:56:51.469Z,22.67
2022-08-09T01:59:21.501Z,22.51
2022-08-09T02:01:59.259Z,22.49
2022-08-09T02:04:29.956Z,22.57
2022-08-09T02:07:08.697Z,22.48
2022-08-09T02:10:04.572Z,22.50
2022-08-09T02:12:34.981Z,22.42
2022-08-09T02:15:06.161Z,22.32
2022-08-09T02:18:00.425Z,22.34
2022-08-09T02:20:32.553Z,22.18
2022-08-09T02:23:16.897Z,22.19
2022-08-09T02:25:52.918Z,22.27
2022-08-09T02:28:44.144Z,22.31
2022-08-09T02:31:22.714Z,22.33
2022-08-09T02:34:06.429Z,22.11
2022-08-09T02:36:42.231Z,22.09
2022-08-09T02:39:39.668Z,22.10
2022-08-09T02:42:19.162Z,22.01
2022-08-09T02:44:59.154Z,22.00
2022-08-09T02:47:33.908Z,22.02
2022-08-09T02:50:24.308Z,22.06
2022-08-09T02:53:26.416Z,21.96
2022-08-09T02:55:58.745Z,21.96
2022-08-09T02:58:35.934Z,21.90
2022-08-09T03:01:07.806Z,21.94
2022-08-09T03:04:17.160Z,21.94
2022-08-09T03:06:27.291Z,21.92
2022-08-09T03:08:56.103Z,21.95
2022-08-09T03:12:04.281Z,21.86
2022-08-09T03:14:13.110Z,21.76
2022-08-09T03:16:45.286Z,21.60
2022-08-09T03:19:59.278Z,21.63
2022-08-09T03:22:12.484Z,21.54
2022-08-09T03:25:03.328Z,21.64
2022-08-09T03:27:45.470Z,21.61
2022-08-09T03:30:30.220Z,21.55
2022-08-09T03:33:05.531Z,21.56
2022-08-09T03:36:13.844Z,21.38
2022-08-09T03:38:28.761Z,21.47
2022-08-09T03:40:56.022Z,21.42
2022-08-09T03:43:22.893Z,21.44
2022-08-09T03:46:03.912Z,21.40
2022-08-09T03:48:42.934Z,21.25
2022-08-09T03:51:56.613Z,21.34
2022-08-09T03:54:10.981Z,21.24
2022-08-09T03:56:41.134Z,21.25
2022-08-09T03:59:20.854Z,21.13
2022-08-09T04:01:56.737Z,21.11
2022-08-09T04:04:36.030Z,21.14
2022-08-09T04:07:06.447Z,21.14
2022-08-09T04:09:44.392Z,20.97
2022-08-09T04:12:30.607Z,20.95
2022-08-09T04:15:02.174Z,20.96
2022-08-09T04:17:42.431Z,21.05
2022-08-09T04:20:13.069Z,21.15
2022-08-09T04:22:44.202Z,21.12
2022-08-09T04:25:13.202Z,21.16
2022-08-09T04:27:46.763Z,21.17
2022-08-09T04:30:20.884Z,21.30
2022-08-09T04:32:51.677Z,21.46
2022-08-09T04:35:21.861Z,21.57
2022-08-09T04:37:49.960Z,21.60
2022-08-09T04:40:19.532Z,21.71
2022-08-09T04:42:56.926Z,21.79
2022-08-09T04:45:24.312Z,21.79
2022-08-09T04:48:04.201Z,21.94
2022-08-09T04:50:37.606Z,22.15
2022-08-09T04:53:13.463Z,22.26
2022-08-09T04:55:58.916Z,22.37
2022-08-09T04:58:27.998Z,22.63
2022-08-09T05:00:57.535Z,22.71
2022-08-09T05:03:41.176Z,22.90
2022-08-09T05:06:27.184Z,23.08
2022-08-09T05:09:00.882Z,23.23
2022-08-09T05:11:30.623Z,23.39
2022-08-09T05:13:59.726Z,23.52
2022-08-09T05:16:31.808Z,23.77
2022-08-09T05:19:00.117Z,23.78
2022-08-09T05:21:30.470Z,23.88
2022-08-09T05:24:13.732Z,24.17
2022-08-09T05:26:45.758Z,24.27
2022-08-09T05:29:23.904Z,24.37
2022-08-09T05:31:58.370Z,24.42
2022-08-09T05:34:32.374Z,24.74
2022-08-09T05:37:06.602Z,24.91
2022-08-09T05:39:43.911Z,25.17
2022-08-09T05:42:17.393Z,25.44
2022-08-09T05:45:00.081Z,25.75
2022-08-09T05:47:30.198Z,26.30
2022-08-09T05:50:30.149Z,26.62
2022-08-09T05:52:53.628Z,26.94
2022-08-09T05:55:23.352Z,27.20
2022-08-09T05:57:56.800Z,27.77
2022-08-09T06:00:32.861Z,28.30
2022-08-09T06:03:03.373Z,28.56
2022-08-09T06:05:57.868Z,28.96
2022-08-09T06:08:24.465Z,29.39
2022-08-09T06:10:56.972Z,29.88
2022-08-09T06:13:28.230Z,30.19
2022-08-09T06:15:55.961Z,31.12
2022-08-09T06:18:25.007Z,31.66
2022-08-09T06:20:57.141Z,32.08
2022-08-09T06:23:59.021Z,32.85
2022-08-09T06:26:20.491Z,32.93
2022-08-09T06:28:59.894Z,32.84
2022-08-09T06:31:30.807Z,34.15
2022-08-09T06:33:58.724Z,34.93
2022-08-09T06:36:27.287Z,34.96
2022-08-09T06:38:57.459Z,35.95
2022-08-09T06:41:58.870Z,36.48
2022-08-09T06:44:14.308Z,37.74
2022-08-09T06:46:45.527Z,39.16
2022-08-09T06:49:12.704Z,39.45
2022-08-09T06:51:49.699Z,39.25
2022-08-09T06:54:18.147Z,39.60
2022-08-09T06:56:47.282Z,40.67
2022-08-09T07:00:54.788Z,41.68
2022-08-09T07:02:03.716Z,41.81
2022-08-09T07:04:32.321Z,42.71
2022-08-09T07:07:00.573Z,43.34
2022-08-09T07:09:55.923Z,43.90
2022-08-09T07:12:17.957Z,44.48
2022-08-09T07:14:51.167Z,44.34
2022-08-09T07:17:20.129Z,44.79
2022-08-09T07:19:50.759Z,45.12
2022-08-09T07:22:42.242Z,45.33
2022-08-09T07:25:12.627Z,45.76
2022-08-09T07:27:53.643Z,46.06
2022-08-09T07:30:25.208Z,45.63
2022-08-09T07:32:52.754Z,45.77
2022-08-09T07:35:22.328Z,44.40
2022-08-09T07:37:50.495Z,45.09
2022-08-09T07:40:20.401Z,44.27
2022-08-09T07:43:00.475Z,45.11
2022-08-09T07:45:38.325Z,45.31
2022-08-09T07:48:07.286Z,45.94
2022-08-09T07:50:36.838Z,45.87
2022-08-09T07:53:05.198Z,45.19
2022-08-09T07:55:41.736Z,44.76
2022-08-09T07:58:21.497Z,46.04
2022-08-09T08:00:55.746Z,46.34
2022-08-09T08:03:26.823Z,45.78
2022-08-09T08:05:58.242Z,45.62
2022-08-09T08:09:02.633Z,45.70
2022-08-09T08:12:11.045Z,46.34
2022-08-09T08:14:00.446Z,47.05
2022-08-09T08:16:31.963Z,47.13
2022-08-09T08:18:59.926Z,48.05
2022-08-09T08:21:30.609Z,47.94
2022-08-09T08:23:57.498Z,47.71
2022-08-09T08:26:54.930Z,48.40
2022-08-09T08:29:20.423Z,48.81
2022-08-09T08:32:04.191Z,49.31
2022-08-09T08:34:34.682Z,49.63
2022-08-09T08:37:03.788Z,50.03
2022-08-09T08:39:40.032Z,49.74
2022-08-09T08:42:11.270Z,51.10
2022-08-09T08:44:39.455Z,51.89
2022-08-09T08:47:12.846Z,52.58
2022-08-09T08:49:46.597Z,52.19
2022-08-09T08:52:58.358Z,51.77
2022-08-09T08:55:06.262Z,53.09
2022-08-09T08:57:35.517Z,52.63
2022-08-09T09:00:12.799Z,53.00
2022-08-09T09:02:53.933Z,53.62
2022-08-09T09:05:33.117Z,53.07
2022-08-09T09:08:30.319Z,53.52
2022-08-09T09:11:04.333Z,54.81
2022-08-09T09:13:55.214Z,56.09
2022-08-09T09:16:34.329Z,56.72
2022-08-09T09:19:37.477Z,54.89
2022-08-09T09:22:26.594Z,56.13
2022-08-09T09:26:01.084Z,55.89
2022-08-09T09:28:05.188Z,56.37
2022-08-09T09:30:40.904Z,57.39
2022-08-09T09:33:15.780Z,57.98
2022-08-09T09:36:02.846Z,58.65
2022-08-09T09:38:50.648Z,58.85
2022-08-09T09:41:23.442Z,58.69
2022-08-09T09:44:11.832Z,56.55
2022-08-09T09:46:42.813Z,56.38
2022-08-09T09:49:32.213Z,56.77
2022-08-09T09:52:33.486Z,57.89
2022-08-09T09:55:24.077Z,57.22
2022-08-09T09:58:15.759Z,57.95
2022-08-09T10:00:58.454Z,58.48
2022-08-09T10:03:56.942Z,58.44
2022-08-09T10:06:27.215Z,58.23
2022-08-09T10:09:02.923Z,57.89
2022-08-09T10:12:01.319Z,57.91
2022-08-09T10:14:33.199Z,57.85
2022-08-09T10:17:39.150Z,57.29
2022-08-09T10:20:27.172Z,56.32
2022-08-09T10:23:21.254Z,52.53
2022-08-09T10:26:07.712Z,51.35
2022-08-09T10:28:40.662Z,48.14
2022-08-09T10:34:09.087Z,44.74
2022-08-09T10:36:45.699Z,42.44
2022-08-09T10:39:14.170Z,41.02
2022-08-09T10:41:45.980Z,40.03
2022-08-09T10:44:19.333Z,39.11
2022-08-09T10:48:13.424Z,38.37
2022-08-09T10:50:49.412Z,37.65
2022-08-09T10:53:39.659Z,37.19
2022-08-09T10:56:25.373Z,36.56
2022-08-09T10:58:55.491Z,36.26
2022-08-09T11:03:13.339Z,34.82
2022-08-09T11:04:29.939Z,34.33
2022-08-09T11:07:00.167Z,33.08
2022-08-09T11:09:47.503Z,32.80
2022-08-09T11:12:17.235Z,32.62
2022-08-09T11:14:57.351Z,32.57
2022-08-09T11:17:27.152Z,32.67
2022-08-09T11:20:20.005Z,32.62
2022-08-09T11:22:55.469Z,32.65
2022-08-09T11:25:36.132Z,32.55
2022-08-09T11:28:34.074Z,32.28
2022-08-09T11:31:43.280Z,32.07
2022-08-09T11:34:41.635Z,31.81
2022-08-09T11:37:18.341Z,31.86
2022-08-09T11:40:06.571Z,31.78
2022-08-09T11:42:55.210Z,31.81
2022-08-09T11:45:42.985Z,31.90
2022-08-09T11:48:24.960Z,32.13
2022-08-09T11:52:53.851Z,32.30
2022-08-09T11:54:01.171Z,31.78
2022-08-09T11:56:41.674Z,31.64
2022-08-09T11:59:12.028Z,31.74
2022-08-09T12:02:34.284Z,31.71
2022-08-09T12:04:37.022Z,31.75
2022-08-09T12:07:07.759Z,31.78
2022-08-09T12:09:36.181Z,31.70
2022-08-09T12:12:12.342Z,31.66
2022-08-09T12:15:08.187Z,31.60
2022-08-09T12:17:41.518Z,31.61
2022-08-09T12:20:22.407Z,31.57
2022-08-09T12:22:57.977Z,31.56
2022-08-09T12:25:37.423Z,31.53
2022-08-09T12:28:58.264Z,31.53
2022-08-09T12:31:02.829Z,31.55
2022-08-09T12:33:59.462Z,31.56
2022-08-09T12:36:33.567Z,31.61
2022-08-09T12:39:02.257Z,31.48
2022-08-09T12:41:39.469Z,31.56
2022-08-09T12:44:10.189Z,31.54
2022-08-09T12:46:49.288Z,31.63
2022-08-09T12:49:18.001Z,31.60
2022-08-09T12:52:02.114Z,31.47
2022-08-09T12:56:11.478Z,31.54
2022-08-09T12:57:46.822Z,31.34
2022-08-09T13:00:25.453Z,31.32
2022-08-09T13:03:07.042Z,31.42
2022-08-09T13:05:51.779Z,31.30
2022-08-09T13:08:40.477Z,31.30
2022-08-09T13:11:13.133Z,31.36
2022-08-09T13:14:41.400Z,31.33
2022-08-09T13:16:46.097Z,31.15
2022-08-09T13:20:10.403Z,31.15
2022-08-09T13:22:37.896Z,31.22
2022-08-09T13:25:14.068Z,31.35
2022-08-09T13:27:54.536Z,31.37
2022-08-09T13:31:11.493Z,31.07
2022-08-09T13:33:51.691Z,31.15
2022-08-09T13:36:39.553Z,31.16
2022-08-09T13:41:19.030Z,31.10
2022-08-09T13:42:01.080Z,31.12
2022-08-09T13:44:29.224Z,31.00
2022-08-09T13:47:26.412Z,31.04
2022-08-09T13:49:57.944Z,31.12
2022-08-09T13:52:30.029Z,31.06
2022-08-09T13:54:59.749Z,31.14
2022-08-09T13:57:39.664Z,31.17
2022-08-09T14:00:12.844Z,31.29
2022-08-09T14:03:03.579Z,31.25
2022-08-09T14:05:59.644Z,31.20
2022-08-09T14:08:17.378Z,31.25
2022-08-09T14:10:50.488Z,31.20
2022-08-09T14:13:28.077Z,31.20
2022-08-09T14:16:12.381Z,31.09
2022-08-09T14:18:45.970Z,31.14
2022-08-09T14:21:23.176Z,31.08
2022-08-09T14:23:56.867Z,31.04
2022-08-09T14:26:33.564Z,31.19
2022-08-09T14:29:07.595Z,31.09
2022-08-09T14:31:49.921Z,31.08
2022-08-09T14:34:31.816Z,30.99
2022-08-09T14:37:05.983Z,31.00
2022-08-09T14:39:46.609Z,31.10
2022-08-09T14:42:30.724Z,31.09
2022-08-09T14:46:46.692Z,31.07
2022-08-09T14:47:58.129Z,31.22
2022-08-09T14:50:30.645Z,31.32
2022-08-09T14:52:59.326Z,31.24
2022-08-09T14:55:32.129Z,31.24
2022-08-09T14:58:03.111Z,31.17
2022-08-09T15:00:32.042Z,31.12
2022-08-09T15:03:01.645Z,31.16
2022-08-09T15:05:30.662Z,31.07
2022-08-09T15:07:58.323Z,31.09
2022-08-09T15:10:27.479Z,31.00
2022-08-09T15:12:55.766Z,31.13
2022-08-09T15:15:24.133Z,31.20
2022-08-09T15:17:53.252Z,31.16
2022-08-09T15:21:55.797Z,31.22
2022-08-09T15:24:01.529Z,31.20
2022-08-09T15:25:58.175Z,31.20
2022-08-09T15:28:27.293Z,31.21
2022-08-09T15:31:10.059Z,31.17
2022-08-09T15:34:17.408Z,31.14
2022-08-09T15:36:29.462Z,31.22
2022-08-09T15:39:00.822Z,31.16
2022-08-09T15:41:32.186Z,31.19
2022-08-09T15:44:03.011Z,31.20
2022-08-09T15:46:34.254Z,31.25
2022-08-09T15:49:21.657Z,31.22
2022-08-09T15:52:05.168Z,31.04
2022-08-09T15:54:44.854Z,30.52
2022-08-09T15:57:18.964Z,30.56
2022-08-09T16:00:00.803Z,30.67
2022-08-09T16:02:27.688Z,30.61
2022-08-09T16:04:54.689Z,30.38
2022-08-09T16:07:21.585Z,30.29
2022-08-09T16:09:57.937Z,30.28
2022-08-09T16:12:31.349Z,30.25
2022-08-09T16:14:58.433Z,30.29
2022-08-09T16:17:28.918Z,30.61
2022-08-09T16:20:04.044Z,30.63
2022-08-09T16:22:33.914Z,30.79
2022-08-09T16:25:04.041Z,30.85
2022-08-09T16:27:32.417Z,30.98
2022-08-09T16:30:06.384Z,30.97
2022-08-09T16:32:54.475Z,30.99
2022-08-09T16:35:56.776Z,30.95
2022-08-09T16:38:10.230Z,30.89
2022-08-09T16:40:41.095Z,31.08
2022-08-09T16:43:09.721Z,30.92
2022-08-09T16:45:41.622Z,30.81
2022-08-09T16:48:41.192Z,30.82
2022-08-09T16:50:59.854Z,30.84
2022-08-09T16:53:36.323Z,30.81
2022-08-09T16:56:09.903Z,30.88
2022-08-09T16:58:39.443Z,30.88
2022-08-09T17:01:07.594Z,30.83
2022-08-09T17:03:34.875Z,30.86
2022-08-09T17:06:06.532Z,30.82
2022-08-09T17:09:03.178Z,30.96
2022-08-09T17:11:41.105Z,30.90
2022-08-09T17:14:25.586Z,30.94
2022-08-09T17:16:56.976Z,30.79
2022-08-09T17:20:04.969Z,30.80
2022-08-09T17:22:23.840Z,30.76
2022-08-09T17:24:55.458Z,30.72
2022-08-09T17:27:22.854Z,30.73
2022-08-09T17:29:51.548Z,30.58
2022-08-09T17:32:20.278Z,30.45
2022-08-09T17:35:07.721Z,30.35
2022-08-09T17:38:07.591Z,30.36
2022-08-09T17:40:33.185Z,30.42
2022-08-09T17:43:32.731Z,30.36
2022-08-09T17:46:05.689Z,30.25
2022-08-09T17:48:51.848Z,30.22
2022-08-09T17:51:20.039Z,30.21
2022-08-09T17:53:54.525Z,30.25
2022-08-09T17:56:29.171Z,30.12
2022-08-09T17:59:03.096Z,30.12
2022-08-09T18:02:03.613Z,29.92
2022-08-09T18:04:20.061Z,29.94
2022-08-09T18:06:54.180Z,29.84
2022-08-09T18:09:24.789Z,29.91
2022-08-09T18:12:05.640Z,29.97
2022-08-09T18:14:49.927Z,29.76
2022-08-09T18:17:18.921Z,29.78
2022-08-09T18:20:57.269Z,29.66
2022-08-09T18:22:44.200Z,29.61
2022-08-09T18:25:18.397Z,29.49
2022-08-09T18:28:02.180Z,29.46
2022-08-09T18:30:40.180Z,29.38
2022-08-09T18:33:15.333Z,29.48
2022-08-09T18:35:58.775Z,29.36
2022-08-09T18:38:27.506Z,29.25
2022-08-09T18:40:55.539Z,29.21
2022-08-09T18:43:23.440Z,29.10
2022-08-09T18:46:51.367Z,29.08
2022-08-09T18:48:37.892Z,29.03
2022-08-09T18:51:04.986Z,28.93
2022-08-09T18:53:36.728Z,28.96
2022-08-09T18:56:27.080Z,28.93
2022-08-09T18:58:56.937Z,28.82
2022-08-09T19:01:25.586Z,28.77
2022-08-09T19:04:06.505Z,28.73
2022-08-09T19:06:39.035Z,28.65
2022-08-09T19:09:34.107Z,28.64
2022-08-09T19:12:05.025Z,28.52
2022-08-09T19:14:32.235Z,28.27
2022-08-09T19:16:59.110Z,28.05
2022-08-09T19:19:28.200Z,27.95
2022-08-09T19:22:04.619Z,27.84
2022-08-09T19:24:38.619Z,27.70
2022-08-09T19:27:20.272Z,27.59
2022-08-09T19:30:21.082Z,27.53
2022-08-09T19:32:36.791Z,27.47
2022-08-09T19:35:05.433Z,27.39
2022-08-09T19:37:53.989Z,27.39
2022-08-09T19:40:21.110Z,27.33
2022-08-09T19:42:49.007Z,27.37
2022-08-09T19:45:17.461Z,27.30
2022-08-09T19:47:45.073Z,27.24
2022-08-09T19:50:50.477Z,27.20
2022-08-09T19:53:02.511Z,27.13
2022-08-09T19:56:02.106Z,27.12
2022-08-09T19:58:29.612Z,27.06
2022-08-09T20:00:58.257Z,27.03
2022-08-09T20:04:11.126Z,27.04
2022-08-09T20:06:23.820Z,27.02
2022-08-09T20:08:57.653Z,26.98
2022-08-09T20:11:33.729Z,26.95
2022-08-09T20:14:10.614Z,26.95
2022-08-09T20:16:53.588Z,26.92
2022-08-09T20:19:49.394Z,26.98
2022-08-09T20:22:10.260Z,27.05
2022-08-09T20:24:42.234Z,27.00
2022-08-09T20:27:09.154Z,26.95
2022-08-09T20:29:39.537Z,26.88
2022-08-09T20:32:31.302Z,26.79
2022-08-09T20:34:56.921Z,26.72
2022-08-09T20:37:24.125Z,26.69
2022-08-09T20:40:17.485Z,26.64
2022-08-09T20:42:38.360Z,26.59
2022-08-09T20:45:59.195Z,26.62
2022-08-09T20:47:55.063Z,26.58
2022-08-09T20:50:47.704Z,26.53
2022-08-09T20:53:18.635Z,26.52
2022-08-09T20:56:02.002Z,26.55
2022-08-09T20:58:32.769Z,26.49
2022-08-09T21:01:32.369Z,26.53
2022-08-09T21:04:35.599Z,26.48
2022-08-09T21:06:41.380Z,26.46
2022-08-09T21:09:13.602Z,26.41
2022-08-09T21:14:30.777Z,26.33
2022-08-09T21:16:59.389Z,26.38
2022-08-09T21:20:18.243Z,26.33
2022-08-09T21:22:38.333Z,26.43
2022-08-09T21:25:20.609Z,26.32
2022-08-09T21:27:51.538Z,26.30
2022-08-09T21:30:22.487Z,26.30
2022-08-09T21:32:51.030Z,26.27
2022-08-09T21:35:18.250Z,26.21
2022-08-09T21:37:59.965Z,26.14
2022-08-09T21:40:30.218Z,26.23
2022-08-09T21:42:59.770Z,26.15
2022-08-09T21:45:28.504Z,26.24
2022-08-09T21:47:58.417Z,26.01
2022-08-09T21:50:35.836Z,26.07
2022-08-09T21:53:19.817Z,25.95
2022-08-09T21:55:54.683Z,25.92
2022-08-09T21:58:21.581Z,25.85
2022-08-09T22:00:58.499Z,25.82
2022-08-09T22:03:26.175Z,25.83
2022-08-09T22:05:55.202Z,25.75
2022-08-09T22:08:27.843Z,25.78
2022-08-09T22:11:05.175Z,25.69
2022-08-09T22:13:43.975Z,25.79
2022-08-09T22:16:11.875Z,25.68
2022-08-09T22:18:54.457Z,25.61
2022-08-09T22:21:49.779Z,25.56
2022-08-09T22:24:17.328Z,25.49
2022-08-09T22:26:51.457Z,25.52
2022-08-09T22:29:19.829Z,25.44
2022-08-09T22:31:56.346Z,25.40
2022-08-09T22:34:26.835Z,25.36
2022-08-09T22:36:55.788Z,25.37
2022-08-09T22:39:55.423Z,25.33
2022-08-09T22:42:22.242Z,25.35
2022-08-09T22:48:04.771Z,25.26
2022-08-09T22:48:29.662Z,25.28
2022-08-09T22:50:31.875Z,25.18
2022-08-09T22:53:03.546Z,25.15
2022-08-09T22:56:07.819Z,25.07
2022-08-09T22:58:20.212Z,24.98
2022-08-09T23:01:05.501Z,24.93
2022-08-09T23:04:03.908Z,24.93
2022-08-09T23:06:32.759Z,25.00
2022-08-09T23:09:06.735Z,24.79
2022-08-09T23:11:33.814Z,24.81
2022-08-09T23:14:02.394Z,24.82
2022-08-09T23:16:29.332Z,24.83
2022-08-09T23:18:56.266Z,24.79
2022-08-09T23:21:26.021Z,24.59
2022-08-09T23:24:06.582Z,24.53
2022-08-09T23:26:38.358Z,24.53
2022-08-09T23:29:07.624Z,24.53
2022-08-09T23:31:34.606Z,24.48
2022-08-09T23:34:02.552Z,24.51
2022-08-09T23:36:30.982Z,24.52
2022-08-09T23:38:57.999Z,24.51
2022-08-09T23:41:28.925Z,24.45
2022-08-09T23:43:59.108Z,24.50
2022-08-09T23:46:27.309Z,24.59
2022-08-09T23:48:54.346Z,24.48
2022-08-09T23:51:21.297Z,24.56
2022-08-09T23:53:50.386Z,24.52
2022-08-09T23:56:17.596Z,24.51
2022-08-09T23:59:04.624Z,24.52
